Airfield :
LOGIN :

Register | Disclaimer

   EN    FR    IT 

 










Legend :    VFR   Marginal VFR   IFR   Intensive IFR   Very Intensive IFR
Visi :
Ceiling :
>= 8 km
>= 3000ft
5 to 8 km
1000 to 3000 ft
1500m to 5 km
500 to 1000 ft
800 to 1500m
200 to 500 ft
< 800m
< 200 ft
Symbols :   Thunderstorms  Fog  Heavy snow  Heavy precipitations  Wind > 20 kt
SIGMETs :     Misc.  Thunderstorms  Icing  Turbulence  Mountain Waves  Volcanic Ashes







- Airport Elevation : 364 ft
- Download approach charts


LFAQ - Albert Bray

CURRENT METAR :
  • 191030Z AUTO 26010KT 9999 SCT013 09/05 Q1022 NOSIG

EXPIRED METARs :
  • 191000Z AUTO 25010KT 9999 FEW012 08/05 Q1022 NOSIG
  • 190930Z AUTO 24009KT CAVOK 07/06 Q1022 NOSIG
  • 190900Z AUTO 20005KT 170V230 9000 NSC 07/05 Q1021 NOSIG
  • 190830Z AUTO 20005KT 9000 NSC 06/05 Q1021 TEMPO 4000 BR BKN009
  • 190800Z AUTO 22006KT 9000 NSC 04/04 Q1021 TEMPO 4000 BR BKN009

TAF TAF LFAQ
Valid from the 19 at 09:00 until the 19 at 18:00 UTC


190800Z 1909/1918 24008KT 9999 SCT020
No reported NOTAMs for that airfield.
1 SIGMET reported for the Paris FIR (LFFF) :
 
Severe turbulence
LFFF SIGMET 2 VALID 190800/191200 LFPW
LFFF PARIS FIR/UIR SEV TURB FCST WI N4715 E00130 - N4715 W00015 - N4800 W00015 - N4900 E00100 - N4830 E00230 - N4715 E00130 FL200/300 MOV E 10KT WKN=



MET'MAP, your aeronautical weather chart ! - Copyright ORBIFLY December 2007 - Disclaimer

ORBIFLY MET'MAP TEAM :

Programming & Development : Alexandra Zaïnal
Concept & Development : Baudouin d'Aumeries
Co-Development & Prog : Marc-Olivier Méhu
Technical & hardware support : Manuel Goepfert

Contact : metmap@orbifly.com




SOURCES & CREDITS :

   NOAA